createdAt,value
2023-02-19T00:01:13.682Z,84.99
2023-02-19T00:03:50.371Z,84.93
2023-02-19T00:06:20.940Z,84.75
2023-02-19T00:08:55.650Z,84.89
2023-02-19T00:11:28.265Z,84.97
2023-02-19T00:14:00.212Z,84.97
2023-02-19T00:16:33.631Z,84.76
2023-02-19T00:19:05.032Z,84.76
2023-02-19T00:21:35.796Z,84.45
2023-02-19T00:24:10.252Z,84.50
2023-02-19T00:26:42.548Z,84.57
2023-02-19T00:29:15.225Z,84.24
2023-02-19T00:31:46.009Z,84.23
2023-02-19T00:34:18.408Z,84.17
2023-02-19T00:36:48.768Z,84.35
2023-02-19T00:39:21.569Z,84.22
2023-02-19T00:41:51.611Z,84.16
2023-02-19T00:44:22.427Z,84.04
2023-02-19T00:46:52.710Z,84.49
2023-02-19T00:49:25.809Z,84.46
2023-02-19T00:51:56.248Z,84.53
2023-02-19T00:54:28.865Z,85.07
2023-02-19T00:56:58.755Z,85.36
2023-02-19T00:59:28.706Z,85.78
2023-02-19T01:01:58.730Z,86.28
2023-02-19T01:04:28.668Z,86.37
2023-02-19T01:06:59.033Z,86.44
2023-02-19T01:09:31.681Z,86.31
2023-02-19T01:12:01.814Z,86.55
2023-02-19T01:14:32.016Z,86.78
2023-02-19T01:17:02.199Z,87.11
2023-02-19T01:19:32.356Z,87.35
2023-02-19T01:22:02.639Z,87.45
2023-02-19T01:24:36.078Z,87.43
2023-02-19T01:27:06.647Z,87.57
2023-02-19T01:29:36.877Z,87.86
2023-02-19T01:32:07.145Z,88.20
2023-02-19T01:34:37.392Z,88.37
2023-02-19T01:37:11.319Z,88.38
2023-02-19T01:39:44.238Z,88.62
2023-02-19T01:42:17.873Z,88.53
2023-02-19T01:45:26.446Z,88.40
2023-02-19T01:48:10.646Z,88.91
2023-02-19T01:50:47.443Z,88.59
2023-02-19T01:53:22.314Z,88.85
2023-02-19T01:55:58.382Z,88.94
2023-02-19T01:58:33.346Z,89.03
2023-02-19T02:01:04.305Z,89.43
2023-02-19T02:03:35.418Z,89.23
2023-02-19T02:06:10.938Z,89.20
2023-02-19T02:08:54.343Z,88.84
2023-02-19T02:11:27.642Z,88.88
2023-02-19T02:13:57.907Z,88.84
2023-02-19T02:16:36.445Z,88.42
2023-02-19T02:19:23.853Z,88.53
2023-02-19T02:22:09.288Z,88.46
2023-02-19T02:25:09.191Z,88.30
2023-02-19T02:27:53.659Z,87.99
2023-02-19T02:30:36.149Z,87.96
2023-02-19T02:33:15.442Z,88.13
2023-02-19T02:35:50.508Z,88.10
2023-02-19T02:38:25.259Z,88.11
2023-02-19T02:40:58.732Z,88.01
2023-02-19T02:43:31.225Z,88.16
2023-02-19T02:46:03.923Z,87.97
2023-02-19T02:48:41.289Z,88.13
2023-02-19T02:51:18.998Z,88.06
2023-02-19T02:54:26.183Z,87.70
2023-02-19T02:57:02.652Z,87.62
2023-02-19T02:59:40.578Z,87.65
2023-02-19T03:02:14.981Z,87.64
2023-02-19T03:05:06.206Z,87.69
2023-02-19T03:07:41.636Z,87.99
2023-02-19T03:10:16.285Z,87.83
2023-02-19T03:13:01.040Z,87.97
2023-02-19T03:15:47.656Z,88.02
2023-02-19T03:18:34.642Z,88.23
2023-02-19T03:21:09.524Z,88.28
2023-02-19T03:23:54.523Z,89.23
2023-02-19T03:26:26.460Z,90.39
2023-02-19T03:29:11.668Z,90.97
2023-02-19T03:31:47.776Z,91.60
2023-02-19T03:34:26.245Z,91.61
2023-02-19T03:37:01.279Z,92.18
2023-02-19T03:39:32.036Z,92.30
2023-02-19T03:42:10.593Z,92.39
2023-02-19T03:44:45.847Z,91.97
2023-02-19T03:47:20.743Z,92.19
2023-02-19T03:50:01.722Z,92.02
2023-02-19T03:52:44.676Z,92.26
2023-02-19T03:55:20.023Z,92.15
2023-02-19T03:57:56.013Z,92.05
2023-02-19T04:00:33.036Z,91.94
2023-02-19T04:03:09.965Z,91.76
2023-02-19T04:05:48.170Z,91.27
2023-02-19T04:08:21.655Z,91.44
2023-02-19T04:10:58.243Z,91.74
2023-02-19T04:13:35.041Z,92.17
2023-02-19T04:16:11.979Z,91.62
2023-02-19T04:18:46.948Z,91.96
2023-02-19T04:21:20.056Z,91.91
2023-02-19T04:23:51.217Z,91.95
2023-02-19T04:26:24.648Z,91.93
2023-02-19T04:28:54.750Z,91.79
2023-02-19T04:31:26.255Z,91.33
2023-02-19T04:33:56.217Z,91.50
2023-02-19T04:36:29.042Z,91.27
2023-02-19T04:38:59.093Z,91.54
2023-02-19T04:41:29.070Z,91.51
2023-02-19T04:43:59.322Z,91.89
2023-02-19T04:46:29.653Z,92.23
2023-02-19T04:48:59.763Z,92.59
2023-02-19T04:51:32.502Z,92.75
2023-02-19T04:54:02.550Z,93.12
2023-02-19T04:56:32.524Z,92.86
2023-02-19T04:59:02.537Z,92.74
2023-02-19T05:01:32.791Z,92.98
2023-02-19T05:04:03.237Z,93.12
2023-02-19T05:06:36.385Z,91.99
2023-02-19T05:09:06.573Z,92.85
2023-02-19T05:11:36.634Z,92.60
2023-02-19T05:14:06.609Z,92.96
2023-02-19T05:16:36.520Z,93.17
2023-02-19T05:19:06.725Z,94.10
2023-02-19T05:21:39.630Z,94.14
2023-02-19T05:24:10.352Z,94.38
2023-02-19T05:26:40.450Z,94.03
2023-02-19T05:29:10.526Z,93.79
2023-02-19T05:31:40.478Z,93.78
2023-02-19T05:34:10.483Z,93.43
2023-02-19T05:36:43.803Z,93.36
2023-02-19T05:39:15.001Z,93.36
2023-02-19T05:41:45.099Z,92.84
2023-02-19T05:44:15.106Z,92.90
2023-02-19T05:46:45.091Z,92.30
2023-02-19T05:49:15.065Z,92.55
2023-02-19T05:51:47.816Z,92.17
2023-02-19T05:54:17.739Z,91.89
2023-02-19T05:56:47.680Z,91.68
2023-02-19T05:59:19.670Z,91.89
2023-02-19T06:01:50.604Z,91.87
2023-02-19T06:04:21.841Z,91.79
2023-02-19T06:06:54.436Z,91.91
2023-02-19T06:09:24.286Z,92.41
2023-02-19T06:11:54.207Z,93.03
2023-02-19T06:14:24.203Z,93.45
2023-02-19T06:16:54.110Z,93.04
2023-02-19T06:19:24.414Z,92.56
2023-02-19T06:21:57.075Z,93.11
2023-02-19T06:24:30.579Z,93.46
2023-02-19T06:27:00.613Z,93.51
2023-02-19T06:29:32.667Z,92.84
2023-02-19T06:32:02.773Z,92.97
2023-02-19T06:34:32.822Z,93.18
2023-02-19T06:37:05.670Z,93.33
2023-02-19T06:39:35.686Z,93.23
2023-02-19T06:42:06.358Z,93.71
2023-02-19T06:44:38.337Z,93.89
2023-02-19T06:47:08.460Z,93.58
2023-02-19T06:49:38.378Z,93.47
2023-02-19T06:52:11.343Z,93.86
2023-02-19T06:54:51.457Z,93.60
2023-02-19T06:57:21.505Z,93.33
2023-02-19T06:59:51.617Z,93.04
2023-02-19T07:02:21.876Z,93.22
2023-02-19T07:04:51.772Z,93.02
2023-02-19T07:07:24.516Z,92.77
2023-02-19T07:09:54.648Z,93.35
2023-02-19T07:12:24.729Z,92.97
2023-02-19T07:14:54.641Z,92.48
2023-02-19T07:17:24.690Z,92.22
2023-02-19T07:19:54.719Z,91.57
2023-02-19T07:22:29.325Z,91.43
2023-02-19T07:24:59.329Z,91.05
2023-02-19T07:27:29.403Z,90.61
2023-02-19T07:30:07.129Z,90.16
2023-02-19T07:32:37.557Z,90.33
2023-02-19T07:35:08.243Z,90.66
2023-02-19T07:37:40.954Z,90.75
2023-02-19T07:40:12.122Z,90.74
2023-02-19T07:42:42.517Z,91.19
2023-02-19T07:45:13.457Z,90.89
2023-02-19T07:47:43.529Z,90.66
2023-02-19T07:50:14.110Z,90.71
2023-02-19T07:52:46.834Z,90.43
2023-02-19T07:55:17.125Z,90.26
2023-02-19T07:57:47.103Z,90.02
2023-02-19T08:00:19.341Z,89.51
2023-02-19T08:03:01.940Z,89.92
2023-02-19T08:05:33.486Z,89.71
2023-02-19T08:08:08.125Z,89.48
2023-02-19T08:10:50.542Z,89.35
2023-02-19T08:13:23.461Z,89.19
2023-02-19T08:16:01.698Z,88.94
2023-02-19T08:18:38.097Z,88.93
2023-02-19T08:21:08.647Z,88.86
2023-02-19T08:23:41.682Z,89.35
2023-02-19T08:26:11.745Z,88.59
2023-02-19T08:28:42.130Z,88.63
2023-02-19T08:31:14.730Z,88.49
2023-02-19T08:33:44.989Z,88.46
2023-02-19T08:36:15.180Z,88.35
2023-02-19T08:38:48.360Z,88.52
2023-02-19T08:41:18.636Z,88.14
2023-02-19T08:43:48.863Z,87.94
2023-02-19T08:46:19.015Z,87.89
2023-02-19T08:48:49.288Z,87.77
2023-02-19T08:51:19.225Z,87.66
2023-02-19T08:53:51.968Z,87.91
2023-02-19T08:56:22.199Z,87.90
2023-02-19T08:58:52.239Z,87.89
2023-02-19T09:01:22.405Z,87.92
2023-02-19T09:03:52.651Z,87.89
2023-02-19T09:06:23.770Z,87.72
2023-02-19T09:08:56.434Z,87.54
2023-02-19T09:11:26.458Z,87.35
2023-02-19T09:13:59.419Z,87.10
2023-02-19T09:16:29.434Z,87.21
2023-02-19T09:18:59.428Z,86.35
2023-02-19T09:21:29.377Z,85.63
2023-02-19T09:24:02.226Z,85.83
2023-02-19T09:26:32.275Z,85.62
2023-02-19T09:29:05.468Z,85.24
2023-02-19T09:31:35.595Z,85.20
2023-02-19T09:34:05.793Z,85.74
2023-02-19T09:36:36.188Z,85.85
2023-02-19T09:39:12.671Z,85.73
2023-02-19T09:41:48.031Z,86.00
2023-02-19T09:44:26.312Z,85.43
2023-02-19T09:46:57.326Z,84.22
2023-02-19T09:49:31.656Z,84.19
2023-02-19T09:52:06.627Z,84.29
2023-02-19T09:54:40.983Z,84.42
2023-02-19T09:57:16.975Z,83.75
2023-02-19T09:59:50.915Z,83.32
2023-02-19T10:02:23.770Z,83.13
2023-02-19T10:04:54.974Z,84.23
2023-02-19T10:07:27.212Z,84.46
2023-02-19T10:10:02.889Z,83.31
2023-02-19T10:12:35.305Z,82.90
2023-02-19T10:15:13.830Z,82.52
2023-02-19T10:17:47.867Z,82.31
2023-02-19T10:20:22.494Z,82.52
2023-02-19T10:22:54.491Z,82.84
2023-02-19T10:25:27.280Z,84.06
2023-02-19T10:27:57.502Z,83.78
2023-02-19T10:30:30.860Z,83.49
2023-02-19T10:33:05.568Z,82.28
2023-02-19T10:35:40.915Z,82.87
2023-02-19T10:38:11.156Z,82.70
2023-02-19T10:40:48.044Z,82.22
2023-02-19T10:43:33.343Z,82.72
2023-02-19T10:46:06.536Z,82.99
2023-02-19T10:48:40.499Z,82.78
2023-02-19T10:51:20.957Z,82.02
2023-02-19T10:53:53.071Z,81.25
2023-02-19T10:56:31.541Z,81.44
2023-02-19T10:59:18.286Z,81.44
2023-02-19T11:01:59.891Z,81.49
2023-02-19T11:04:34.256Z,82.14
2023-02-19T11:07:11.780Z,82.42
2023-02-19T11:09:45.298Z,82.90
2023-02-19T11:12:28.234Z,82.51
2023-02-19T11:14:58.965Z,82.70
2023-02-19T11:17:31.342Z,82.04
2023-02-19T11:20:05.693Z,82.17
2023-02-19T11:22:38.438Z,82.20
2023-02-19T11:25:18.160Z,83.00
2023-02-19T11:28:02.764Z,83.03
2023-02-19T11:30:37.175Z,81.67
2023-02-19T11:33:27.705Z,80.85
2023-02-19T11:36:23.871Z,80.23
2023-02-19T11:38:54.085Z,80.86
2023-02-19T11:41:38.263Z,81.65
2023-02-19T11:44:25.844Z,81.52
2023-02-19T11:47:19.409Z,81.29
2023-02-19T11:50:01.008Z,81.47
2023-02-19T11:52:39.631Z,81.56
2023-02-19T11:55:21.332Z,80.76
2023-02-19T11:57:59.161Z,79.49
2023-02-19T12:00:39.101Z,79.27
2023-02-19T12:03:32.392Z,79.16
2023-02-19T12:06:23.740Z,79.40
2023-02-19T12:09:32.064Z,79.96
2023-02-19T12:12:14.767Z,78.32
2023-02-19T12:15:20.301Z,78.59
2023-02-19T12:18:07.829Z,78.10
2023-02-19T12:20:49.519Z,77.51
2023-02-19T12:23:41.864Z,77.32
2023-02-19T12:26:22.924Z,77.45
2023-02-19T12:29:21.417Z,77.73
2023-02-19T12:32:24.115Z,77.18
2023-02-19T12:35:24.632Z,75.30
2023-02-19T12:38:05.400Z,77.03
2023-02-19T12:40:49.699Z,77.83
2023-02-19T12:43:22.274Z,77.42
2023-02-19T12:45:59.016Z,78.19
2023-02-19T12:48:48.013Z,78.15
2023-02-19T12:51:26.922Z,77.01
2023-02-19T12:54:02.979Z,77.35
2023-02-19T12:56:38.591Z,76.95
2023-02-19T12:59:15.547Z,77.56
2023-02-19T13:01:53.869Z,77.58
2023-02-19T13:04:34.137Z,77.57
2023-02-19T13:07:16.846Z,76.91
2023-02-19T13:09:54.045Z,76.79
2023-02-19T13:12:28.759Z,76.28
2023-02-19T13:15:02.983Z,76.49
2023-02-19T13:17:42.044Z,76.74
2023-02-19T13:20:21.052Z,76.46
2023-02-19T13:23:15.388Z,75.79
2023-02-19T13:26:06.743Z,75.67
2023-02-19T13:28:49.393Z,75.64
2023-02-19T13:31:48.542Z,75.12
2023-02-19T13:34:37.868Z,75.61
2023-02-19T13:37:08.663Z,75.84
2023-02-19T13:39:50.508Z,76.29
2023-02-19T13:42:30.423Z,76.29
2023-02-19T13:45:00.883Z,76.78
2023-02-19T13:47:50.224Z,76.97
2023-02-19T13:50:23.716Z,76.36
2023-02-19T13:52:54.718Z,76.61
2023-02-19T13:55:55.667Z,76.49
2023-02-19T13:58:56.707Z,76.37
2023-02-19T14:01:56.808Z,75.98
2023-02-19T14:04:29.335Z,75.63
2023-02-19T14:07:38.448Z,76.02
2023-02-19T14:10:15.585Z,75.96
2023-02-19T14:12:48.259Z,75.33
2023-02-19T14:15:44.527Z,75.34
2023-02-19T14:18:45.791Z,74.27
2023-02-19T14:21:19.673Z,74.78
2023-02-19T14:23:55.874Z,75.11
2023-02-19T14:26:27.781Z,74.93
2023-02-19T14:29:01.725Z,75.16
2023-02-19T14:31:34.229Z,75.41
2023-02-19T14:34:07.850Z,75.26
2023-02-19T14:36:50.483Z,75.14
2023-02-19T14:39:23.163Z,75.06
2023-02-19T14:41:55.984Z,75.18
2023-02-19T14:44:31.715Z,75.25
2023-02-19T14:47:07.236Z,75.23
2023-02-19T14:49:43.898Z,75.90
2023-02-19T14:52:20.334Z,76.21
2023-02-19T14:54:54.822Z,76.46
2023-02-19T14:57:30.176Z,76.96
2023-02-19T15:00:04.632Z,77.27
2023-02-19T15:02:35.793Z,77.30
2023-02-19T15:05:18.550Z,77.71
2023-02-19T15:07:48.878Z,77.52
2023-02-19T15:10:19.780Z,77.52
2023-02-19T15:12:53.473Z,77.19
2023-02-19T15:15:29.236Z,77.03
2023-02-19T15:18:01.336Z,76.86
2023-02-19T15:20:33.771Z,76.17
2023-02-19T15:23:04.963Z,75.43
2023-02-19T15:25:38.678Z,75.68
2023-02-19T15:28:22.752Z,75.64
2023-02-19T15:31:14.026Z,75.01
2023-02-19T15:33:52.504Z,75.15
2023-02-19T15:36:29.886Z,75.61
2023-02-19T15:39:02.492Z,75.50
2023-02-19T15:41:36.999Z,75.54
2023-02-19T15:44:25.654Z,76.17
2023-02-19T15:47:00.425Z,76.44
2023-02-19T15:49:38.081Z,76.95
2023-02-19T15:52:13.617Z,77.14
2023-02-19T15:54:53.069Z,77.34
2023-02-19T15:57:27.313Z,77.56
2023-02-19T15:59:59.991Z,75.94
2023-02-19T16:02:32.925Z,77.68
2023-02-19T16:05:03.877Z,78.12
2023-02-19T16:07:34.957Z,78.38
2023-02-19T16:10:23.484Z,78.38
2023-02-19T16:13:00.884Z,78.47
2023-02-19T16:15:32.681Z,78.64
2023-02-19T16:18:05.287Z,78.60
2023-02-19T16:20:37.660Z,78.62
2023-02-19T16:23:16.126Z,78.71
2023-02-19T16:25:47.356Z,78.21
2023-02-19T16:28:24.427Z,78.56
2023-02-19T16:30:59.826Z,78.64
2023-02-19T16:33:43.564Z,78.59
2023-02-19T16:36:35.583Z,78.69
2023-02-19T16:39:17.607Z,78.73
2023-02-19T16:42:14.569Z,78.39
2023-02-19T16:44:46.893Z,78.70
2023-02-19T16:47:33.033Z,78.71
2023-02-19T16:50:13.979Z,78.94
2023-02-19T16:52:54.090Z,79.00
2023-02-19T16:55:24.349Z,78.93
2023-02-19T16:57:54.868Z,79.20
2023-02-19T17:00:27.325Z,78.98
2023-02-19T17:02:59.946Z,79.10
2023-02-19T17:05:35.106Z,79.09
2023-02-19T17:08:06.277Z,79.07
2023-02-19T17:10:37.292Z,78.76
2023-02-19T17:13:07.172Z,78.96
2023-02-19T17:15:37.165Z,79.05
2023-02-19T17:18:07.252Z,79.19
2023-02-19T17:20:41.316Z,79.39
2023-02-19T17:23:11.206Z,79.25
2023-02-19T17:25:41.251Z,79.46
2023-02-19T17:28:11.278Z,79.39
2023-02-19T17:30:41.331Z,79.34
2023-02-19T17:33:11.332Z,79.29
2023-02-19T17:35:45.759Z,79.32
2023-02-19T17:38:21.546Z,79.32
2023-02-19T17:40:51.537Z,78.99
2023-02-19T17:43:25.415Z,79.13
2023-02-19T17:45:55.758Z,78.85
2023-02-19T17:48:25.773Z,78.82
2023-02-19T17:50:58.824Z,79.12
2023-02-19T17:53:28.872Z,79.28
2023-02-19T17:55:58.880Z,79.31
2023-02-19T17:58:28.781Z,79.49
2023-02-19T18:00:59.050Z,79.30
2023-02-19T18:03:32.190Z,79.59
2023-02-19T18:06:04.777Z,79.44
2023-02-19T18:08:36.977Z,79.87
2023-02-19T18:11:09.823Z,79.88
2023-02-19T18:13:39.898Z,79.94
2023-02-19T18:16:10.429Z,79.74
2023-02-19T18:18:41.118Z,80.03
2023-02-19T18:21:15.678Z,79.93
2023-02-19T18:23:46.173Z,79.49
2023-02-19T18:26:21.356Z,79.92
2023-02-19T18:28:51.240Z,80.13
2023-02-19T18:31:21.308Z,79.86
2023-02-19T18:33:51.412Z,80.03
2023-02-19T18:36:23.927Z,80.15
2023-02-19T18:38:53.875Z,80.09
2023-02-19T18:41:24.678Z,79.87
2023-02-19T18:43:54.754Z,79.89
2023-02-19T18:46:24.817Z,79.87
2023-02-19T18:48:54.895Z,80.06
2023-02-19T18:51:29.790Z,80.07
2023-02-19T18:54:01.777Z,79.98
2023-02-19T18:56:34.608Z,79.73
2023-02-19T18:59:04.775Z,79.71
2023-02-19T19:01:37.098Z,79.83
2023-02-19T19:04:07.912Z,79.83
2023-02-19T19:06:40.711Z,80.13
2023-02-19T19:09:11.008Z,79.88
2023-02-19T19:11:44.483Z,79.87
2023-02-19T19:14:14.685Z,79.89
2023-02-19T19:16:44.913Z,79.59
2023-02-19T19:19:15.157Z,79.62
2023-02-19T19:21:53.651Z,79.53
2023-02-19T19:24:24.724Z,79.53
2023-02-19T19:26:54.888Z,79.80
2023-02-19T19:29:25.958Z,79.56
2023-02-19T19:31:56.400Z,79.60
2023-02-19T19:34:28.361Z,79.53
2023-02-19T19:37:00.979Z,79.50
2023-02-19T19:39:33.313Z,79.46
2023-02-19T19:42:09.390Z,79.63
2023-02-19T19:44:39.370Z,79.62
2023-02-19T19:47:09.542Z,79.41
2023-02-19T19:49:41.123Z,79.40
2023-02-19T19:52:13.630Z,79.62
2023-02-19T19:54:44.805Z,79.61
2023-02-19T19:57:15.256Z,79.81
2023-02-19T19:59:45.095Z,79.47
2023-02-19T20:02:15.370Z,79.55
2023-02-19T20:04:47.050Z,79.68
2023-02-19T20:07:19.896Z,79.53
2023-02-19T20:09:51.420Z,79.39
2023-02-19T20:12:21.563Z,79.52
2023-02-19T20:14:51.549Z,79.67
2023-02-19T20:17:21.702Z,79.71
2023-02-19T20:19:55.370Z,79.24
2023-02-19T20:22:29.977Z,79.27
2023-02-19T20:24:59.871Z,79.04
2023-02-19T20:27:29.727Z,79.23
2023-02-19T20:30:02.102Z,79.08
2023-02-19T20:32:32.631Z,79.24
2023-02-19T20:35:02.564Z,79.28
2023-02-19T20:37:40.855Z,79.31
2023-02-19T20:40:14.285Z,79.45
2023-02-19T20:42:46.341Z,79.40
2023-02-19T20:45:18.504Z,79.58
2023-02-19T20:47:49.346Z,79.52
2023-02-19T20:50:23.334Z,79.50
2023-02-19T20:53:06.278Z,79.28
2023-02-19T20:55:36.506Z,79.59
2023-02-19T20:58:07.922Z,79.38
2023-02-19T21:00:41.135Z,79.71
2023-02-19T21:03:13.517Z,79.38
2023-02-19T21:05:46.118Z,79.46
2023-02-19T21:08:20.438Z,79.47
2023-02-19T21:10:55.637Z,79.36
2023-02-19T21:13:29.937Z,79.31
2023-02-19T21:16:00.589Z,79.57
2023-02-19T21:18:31.085Z,79.29
2023-02-19T21:21:01.154Z,79.55
2023-02-19T21:23:34.072Z,79.26
2023-02-19T21:26:05.246Z,79.44
2023-02-19T21:28:38.502Z,79.28
2023-02-19T21:31:08.817Z,79.35
2023-02-19T21:33:41.696Z,79.30
2023-02-19T21:36:12.744Z,79.21
2023-02-19T21:38:45.732Z,79.15
2023-02-19T21:41:15.535Z,79.23
2023-02-19T21:43:45.448Z,79.15
2023-02-19T21:46:21.012Z,79.05
2023-02-19T21:48:51.303Z,79.15
2023-02-19T21:51:23.794Z,78.94
2023-02-19T21:53:56.351Z,79.02
2023-02-19T21:56:32.868Z,78.90
2023-02-19T21:59:03.612Z,79.20
2023-02-19T22:01:39.497Z,79.18
2023-02-19T22:04:10.182Z,78.82
2023-02-19T22:06:40.925Z,79.16
2023-02-19T22:09:14.580Z,79.00
2023-02-19T22:11:45.573Z,79.15
2023-02-19T22:14:18.091Z,79.19
2023-02-19T22:16:50.451Z,79.40
2023-02-19T22:19:21.354Z,79.07
2023-02-19T22:21:52.568Z,79.63
2023-02-19T22:24:25.405Z,79.89
2023-02-19T22:26:58.802Z,79.87
2023-02-19T22:29:28.749Z,80.03
2023-02-19T22:32:02.940Z,80.30
2023-02-19T22:34:32.942Z,80.27
2023-02-19T22:37:02.968Z,80.39
2023-02-19T22:39:36.118Z,80.39
2023-02-19T22:42:05.970Z,80.40
2023-02-19T22:44:36.860Z,80.33
2023-02-19T22:47:06.973Z,80.27
2023-02-19T22:49:41.718Z,80.02
2023-02-19T22:52:13.387Z,80.10
2023-02-19T22:55:00.876Z,79.83
2023-02-19T22:57:30.848Z,79.94
2023-02-19T23:00:01.470Z,79.66
2023-02-19T23:02:36.011Z,79.65
2023-02-19T23:05:09.133Z,79.62
2023-02-19T23:07:39.010Z,79.50
2023-02-19T23:10:12.643Z,79.40
2023-02-19T23:12:43.795Z,79.37
2023-02-19T23:15:14.083Z,79.37
2023-02-19T23:17:44.160Z,79.54
2023-02-19T23:20:15.333Z,79.28
2023-02-19T23:22:45.300Z,79.04
2023-02-19T23:25:18.366Z,79.34
2023-02-19T23:27:48.373Z,79.10
2023-02-19T23:30:18.805Z,79.34
2023-02-19T23:32:51.621Z,79.32
2023-02-19T23:35:21.540Z,79.00
2023-02-19T23:37:53.300Z,79.31
2023-02-19T23:40:26.014Z,79.29
2023-02-19T23:42:56.872Z,79.04
2023-02-19T23:45:26.918Z,79.31
2023-02-19T23:47:56.866Z,79.11
2023-02-19T23:50:27.019Z,79.22
2023-02-19T23:52:59.231Z,79.37
2023-02-19T23:55:31.709Z,79.45
2023-02-19T23:58:01.488Z,79.66
